sensor_id;sensor_type;location;lat;lon;timestamp;temperature;humidity
40287;DHT22;25998;46.604;13.610;2024-01-15T00:01:13;0.30;99.90
40287;DHT22;25998;46.604;13.610;2024-01-15T00:04:24;0.40;99.90
40287;DHT22;25998;46.604;13.610;2024-01-15T00:07:35;0.40;99.90
40287;DHT22;25998;46.604;13.610;2024-01-15T00:10:46;0.50;99.90
40287;DHT22;25998;46.604;13.610;2024-01-15T00:13:57;0.50;99.90
40287;DHT22;25998;46.604;13.610;2024-01-15T00:17:09;0.50;99.90
40287;DHT22;25998;46.604;13.610;2024-01-15T00:20:19;0.70;99.90
40287;DHT22;25998;46.604;13.610;2024-01-15T00:23:30;0.70;99.90
40287;DHT22;25998;46.604;13.610;2024-01-15T00:26:41;0.70;99.90
40287;DHT22;25998;46.604;13.610;2024-01-15T00:29:52;0.70;99.90
40287;DHT22;25998;46.604;13.610;2024-01-15T00:33:04;0.80;99.90
40287;DHT22;25998;46.604;13.610;2024-01-15T00:36:15;0.90;99.90
40287;DHT22;25998;46.604;13.610;2024-01-15T00:39:27;1.00;99.90
40287;DHT22;25998;46.604;13.610;2024-01-15T00:42:38;0.90;99.90
40287;DHT22;25998;46.604;13.610;2024-01-15T00:45:49;0.80;99.90
40287;DHT22;25998;46.604;13.610;2024-01-15T00:49:03;0.80;99.90
40287;DHT22;25998;46.604;13.610;2024-01-15T00:52:13;0.80;99.90
40287;DHT22;25998;46.604;13.610;2024-01-15T00:55:24;0.80;99.90
40287;DHT22;25998;46.604;13.610;2024-01-15T00:58:35;1.00;99.90
40287;DHT22;25998;46.604;13.610;2024-01-15T01:01:46;1.20;99.90
40287;DHT22;25998;46.604;13.610;2024-01-15T01:04:57;1.10;99.90
40287;DHT22;25998;46.604;13.610;2024-01-15T01:08:08;1.10;99.90
40287;DHT22;25998;46.604;13.610;2024-01-15T01:11:19;1.00;99.90
40287;DHT22;25998;46.604;13.610;2024-01-15T01:14:30;1.00;99.90
40287;DHT22;25998;46.604;13.610;2024-01-15T01:17:41;0.90;99.90
40287;DHT22;25998;46.604;13.610;2024-01-15T01:20:52;0.90;99.90
40287;DHT22;25998;46.604;13.610;2024-01-15T01:24:03;0.90;99.90
40287;DHT22;25998;46.604;13.610;2024-01-15T01:27:14;1.00;99.90
40287;DHT22;25998;46.604;13.610;2024-01-15T01:30:25;1.10;99.90
40287;DHT22;25998;46.604;13.610;2024-01-15T01:33:37;1.20;99.90
40287;DHT22;25998;46.604;13.610;2024-01-15T01:36:48;1.20;99.90
40287;DHT22;25998;46.604;13.610;2024-01-15T01:39:59;1.10;99.90
40287;DHT22;25998;46.604;13.610;2024-01-15T01:43:10;0.90;99.90
40287;DHT22;25998;46.604;13.610;2024-01-15T01:46:21;0.80;99.90
40287;DHT22;25998;46.604;13.610;2024-01-15T01:49:34;0.90;99.90
40287;DHT22;25998;46.604;13.610;2024-01-15T01:52:46;1.00;99.90
40287;DHT22;25998;46.604;13.610;2024-01-15T01:55:57;1.00;99.90
40287;DHT22;25998;46.604;13.610;2024-01-15T01:59:10;1.00;99.90
40287;DHT22;25998;46.604;13.610;2024-01-15T02:02:22;1.00;99.90
40287;DHT22;25998;46.604;13.610;2024-01-15T02:05:33;1.00;99.90
40287;DHT22;25998;46.604;13.610;2024-01-15T02:08:45;0.90;99.90
40287;DHT22;25998;46.604;13.610;2024-01-15T02:11:56;0.80;99.90
40287;DHT22;25998;46.604;13.610;2024-01-15T02:15:07;0.90;99.90
40287;DHT22;25998;46.604;13.610;2024-01-15T02:18:18;1.00;99.90
40287;DHT22;25998;46.604;13.610;2024-01-15T02:21:32;1.00;99.90
40287;DHT22;25998;46.604;13.610;2024-01-15T02:24:42;1.00;99.90
40287;DHT22;25998;46.604;13.610;2024-01-15T02:27:54;0.90;99.90
40287;DHT22;25998;46.604;13.610;2024-01-15T02:31:05;0.90;99.90
40287;DHT22;25998;46.604;13.610;2024-01-15T02:34:18;1.00;99.90
40287;DHT22;25998;46.604;13.610;2024-01-15T02:37:29;1.10;99.90
40287;DHT22;25998;46.604;13.610;2024-01-15T02:40:40;1.10;99.90
40287;DHT22;25998;46.604;13.610;2024-01-15T02:43:51;1.00;99.90
40287;DHT22;25998;46.604;13.610;2024-01-15T02:47:02;0.90;99.90
40287;DHT22;25998;46.604;13.610;2024-01-15T02:50:13;0.90;99.90
40287;DHT22;25998;46.604;13.610;2024-01-15T02:53:24;0.80;99.90
40287;DHT22;25998;46.604;13.610;2024-01-15T02:56:35;0.70;99.90
40287;DHT22;25998;46.604;13.610;2024-01-15T02:59:46;0.70;99.90
40287;DHT22;25998;46.604;13.610;2024-01-15T03:02:57;0.70;99.90
40287;DHT22;25998;46.604;13.610;2024-01-15T03:06:08;0.80;99.90
40287;DHT22;25998;46.604;13.610;2024-01-15T03:09:19;0.80;99.90
40287;DHT22;25998;46.604;13.610;2024-01-15T03:12:29;0.80;99.90
40287;DHT22;25998;46.604;13.610;2024-01-15T03:15:40;0.90;99.90
40287;DHT22;25998;46.604;13.610;2024-01-15T03:18:51;0.90;99.90
40287;DHT22;25998;46.604;13.610;2024-01-15T03:22:02;0.70;99.90
40287;DHT22;25998;46.604;13.610;2024-01-15T03:25:14;0.60;99.90
40287;DHT22;25998;46.604;13.610;2024-01-15T03:28:25;0.70;99.90
40287;DHT22;25998;46.604;13.610;2024-01-15T03:31:36;0.60;99.90
40287;DHT22;25998;46.604;13.610;2024-01-15T03:34:47;0.60;99.90
40287;DHT22;25998;46.604;13.610;2024-01-15T03:37:59;0.80;99.90
40287;DHT22;25998;46.604;13.610;2024-01-15T03:41:10;0.80;99.90
40287;DHT22;25998;46.604;13.610;2024-01-15T03:44:21;0.70;99.90
40287;DHT22;25998;46.604;13.610;2024-01-15T03:47:31;0.60;99.90
40287;DHT22;25998;46.604;13.610;2024-01-15T03:50:42;0.40;99.90
40287;DHT22;25998;46.604;13.610;2024-01-15T03:53:53;0.30;99.90
40287;DHT22;25998;46.604;13.610;2024-01-15T03:57:04;0.30;99.90
40287;DHT22;25998;46.604;13.610;2024-01-15T04:00:15;0.30;99.90
40287;DHT22;25998;46.604;13.610;2024-01-15T04:03:28;0.40;99.90
40287;DHT22;25998;46.604;13.610;2024-01-15T04:06:39;0.40;99.90
40287;DHT22;25998;46.604;13.610;2024-01-15T04:09:49;0.50;99.90
40287;DHT22;25998;46.604;13.610;2024-01-15T04:13:00;0.40;99.90
40287;DHT22;25998;46.604;13.610;2024-01-15T04:16:12;0.40;99.90
40287;DHT22;25998;46.604;13.610;2024-01-15T04:19:23;0.40;99.90
40287;DHT22;25998;46.604;13.610;2024-01-15T04:22:37;0.40;99.90
40287;DHT22;25998;46.604;13.610;2024-01-15T04:25:48;0.50;99.90
40287;DHT22;25998;46.604;13.610;2024-01-15T04:28:59;0.50;99.90
40287;DHT22;25998;46.604;13.610;2024-01-15T04:32:10;0.60;99.90
40287;DHT22;25998;46.604;13.610;2024-01-15T04:35:21;0.60;99.90
40287;DHT22;25998;46.604;13.610;2024-01-15T04:38:32;0.40;99.90
40287;DHT22;25998;46.604;13.610;2024-01-15T04:41:43;0.30;99.90
40287;DHT22;25998;46.604;13.610;2024-01-15T04:44:54;0.20;99.90
40287;DHT22;25998;46.604;13.610;2024-01-15T04:48:05;0.10;99.90
40287;DHT22;25998;46.604;13.610;2024-01-15T04:51:16;0.10;99.90
40287;DHT22;25998;46.604;13.610;2024-01-15T04:54:30;0.10;99.90
40287;DHT22;25998;46.604;13.610;2024-01-15T04:57:41;0.10;99.90
40287;DHT22;25998;46.604;13.610;2024-01-15T05:00:54;0.30;99.90
40287;DHT22;25998;46.604;13.610;2024-01-15T05:04:05;0.40;99.90
40287;DHT22;25998;46.604;13.610;2024-01-15T05:07:16;0.60;99.90
40287;DHT22;25998;46.604;13.610;2024-01-15T05:10:27;0.60;99.90
40287;DHT22;25998;46.604;13.610;2024-01-15T05:13:38;0.60;99.90
40287;DHT22;25998;46.604;13.610;2024-01-15T05:16:49;0.40;99.90
40287;DHT22;25998;46.604;13.610;2024-01-15T05:20:01;0.50;99.90
40287;DHT22;25998;46.604;13.610;2024-01-15T05:23:12;0.40;99.90
40287;DHT22;25998;46.604;13.610;2024-01-15T05:26:22;0.40;99.90
40287;DHT22;25998;46.604;13.610;2024-01-15T05:29:55;0.20;99.90
40287;DHT22;25998;46.604;13.610;2024-01-15T05:34:12;0.10;99.90
40287;DHT22;25998;46.604;13.610;2024-01-15T05:51:13;0.10;99.90
40287;DHT22;25998;46.604;13.610;2024-01-15T05:59:10;0.10;99.90
40287;DHT22;25998;46.604;13.610;2024-01-15T06:06:21;-0.10;99.90
40287;DHT22;25998;46.604;13.610;2024-01-15T06:09:32;-0.10;99.90
40287;DHT22;25998;46.604;13.610;2024-01-15T06:12:43;-0.20;99.90
40287;DHT22;25998;46.604;13.610;2024-01-15T06:15:54;-0.20;99.90
40287;DHT22;25998;46.604;13.610;2024-01-15T06:19:05;-0.20;99.90
40287;DHT22;25998;46.604;13.610;2024-01-15T06:22:16;-0.20;99.90
40287;DHT22;25998;46.604;13.610;2024-01-15T06:25:27;0.00;99.90
40287;DHT22;25998;46.604;13.610;2024-01-15T06:28:38;0.00;99.90
40287;DHT22;25998;46.604;13.610;2024-01-15T06:31:49;0.10;99.90
40287;DHT22;25998;46.604;13.610;2024-01-15T06:35:00;0.20;99.90
40287;DHT22;25998;46.604;13.610;2024-01-15T06:38:10;0.20;99.90
40287;DHT22;25998;46.604;13.610;2024-01-15T06:41:21;-0.10;99.90
40287;DHT22;25998;46.604;13.610;2024-01-15T06:44:32;-0.20;99.90
40287;DHT22;25998;46.604;13.610;2024-01-15T06:47:43;-0.40;99.90
40287;DHT22;25998;46.604;13.610;2024-01-15T06:50:54;-0.50;99.90
40287;DHT22;25998;46.604;13.610;2024-01-15T06:54:05;-0.50;99.90
40287;DHT22;25998;46.604;13.610;2024-01-15T06:57:16;-0.30;99.90
40287;DHT22;25998;46.604;13.610;2024-01-15T07:00:27;-0.30;99.90
40287;DHT22;25998;46.604;13.610;2024-01-15T07:03:38;-0.30;99.90
40287;DHT22;25998;46.604;13.610;2024-01-15T07:06:49;-0.40;99.90
40287;DHT22;25998;46.604;13.610;2024-01-15T07:09:59;-0.30;99.90
40287;DHT22;25998;46.604;13.610;2024-01-15T07:13:10;-0.40;99.90
40287;DHT22;25998;46.604;13.610;2024-01-15T07:16:21;-0.50;99.90
40287;DHT22;25998;46.604;13.610;2024-01-15T07:19:32;-0.50;99.90
40287;DHT22;25998;46.604;13.610;2024-01-15T07:22:43;-0.50;99.90
40287;DHT22;25998;46.604;13.610;2024-01-15T07:25:54;-0.40;99.90
40287;DHT22;25998;46.604;13.610;2024-01-15T07:29:04;-0.40;99.90
40287;DHT22;25998;46.604;13.610;2024-01-15T07:32:16;-0.50;99.90
40287;DHT22;25998;46.604;13.610;2024-01-15T07:35:27;-0.50;99.90
40287;DHT22;25998;46.604;13.610;2024-01-15T07:38:38;-0.30;99.90
40287;DHT22;25998;46.604;13.610;2024-01-15T07:41:49;-0.20;99.90
40287;DHT22;25998;46.604;13.610;2024-01-15T07:45:00;-0.20;99.90
40287;DHT22;25998;46.604;13.610;2024-01-15T07:48:11;-0.20;99.90
40287;DHT22;25998;46.604;13.610;2024-01-15T07:51:23;-0.20;99.90
40287;DHT22;25998;46.604;13.610;2024-01-15T07:54:34;-0.20;99.90
40287;DHT22;25998;46.604;13.610;2024-01-15T07:57:45;-0.20;99.90
40287;DHT22;25998;46.604;13.610;2024-01-15T08:00:56;-0.30;99.90
40287;DHT22;25998;46.604;13.610;2024-01-15T08:04:07;-0.20;99.90
40287;DHT22;25998;46.604;13.610;2024-01-15T08:07:19;-0.10;99.90
40287;DHT22;25998;46.604;13.610;2024-01-15T08:10:30;0.00;99.90
40287;DHT22;25998;46.604;13.610;2024-01-15T08:13:41;0.00;99.90
40287;DHT22;25998;46.604;13.610;2024-01-15T08:16:52;-0.10;99.90
40287;DHT22;25998;46.604;13.610;2024-01-15T08:20:03;-0.40;99.90
40287;DHT22;25998;46.604;13.610;2024-01-15T08:23:15;-0.70;99.90
40287;DHT22;25998;46.604;13.610;2024-01-15T08:26:26;-0.70;99.90
40287;DHT22;25998;46.604;13.610;2024-01-15T08:29:37;-0.60;99.90
40287;DHT22;25998;46.604;13.610;2024-01-15T08:32:48;-0.50;99.90
40287;DHT22;25998;46.604;13.610;2024-01-15T08:35:59;-0.50;99.90
40287;DHT22;25998;46.604;13.610;2024-01-15T08:39:10;-0.50;99.90
40287;DHT22;25998;46.604;13.610;2024-01-15T08:42:20;-0.50;99.90
40287;DHT22;25998;46.604;13.610;2024-01-15T08:45:32;-0.50;99.90
40287;DHT22;25998;46.604;13.610;2024-01-15T08:48:43;-0.40;99.90
40287;DHT22;25998;46.604;13.610;2024-01-15T08:51:53;-0.30;99.90
40287;DHT22;25998;46.604;13.610;2024-01-15T08:55:04;-0.20;99.90
40287;DHT22;25998;46.604;13.610;2024-01-15T08:58:15;-0.10;99.90
40287;DHT22;25998;46.604;13.610;2024-01-15T09:01:26;0.20;99.90
40287;DHT22;25998;46.604;13.610;2024-01-15T09:04:37;0.40;99.90
40287;DHT22;25998;46.604;13.610;2024-01-15T09:07:48;0.70;99.90
40287;DHT22;25998;46.604;13.610;2024-01-15T09:11:02;1.30;99.90
40287;DHT22;25998;46.604;13.610;2024-01-15T09:14:14;1.90;99.90
40287;DHT22;25998;46.604;13.610;2024-01-15T09:17:25;1.90;99.90
40287;DHT22;25998;46.604;13.610;2024-01-15T09:20:38;1.90;99.90
40287;DHT22;25998;46.604;13.610;2024-01-15T09:23:50;2.10;99.90
40287;DHT22;25998;46.604;13.610;2024-01-15T09:27:01;2.20;99.90
40287;DHT22;25998;46.604;13.610;2024-01-15T09:30:13;2.50;99.90
40287;DHT22;25998;46.604;13.610;2024-01-15T09:33:24;2.80;99.90
40287;DHT22;25998;46.604;13.610;2024-01-15T09:36:40;3.00;99.90
40287;DHT22;25998;46.604;13.610;2024-01-15T09:39:54;3.50;99.90
40287;DHT22;25998;46.604;13.610;2024-01-15T09:43:06;3.60;99.90
40287;DHT22;25998;46.604;13.610;2024-01-15T09:46:17;3.50;99.90
40287;DHT22;25998;46.604;13.610;2024-01-15T09:49:28;3.40;99.90
40287;DHT22;25998;46.604;13.610;2024-01-15T09:52:50;3.80;99.90
40287;DHT22;25998;46.604;13.610;2024-01-15T09:56:02;4.30;99.90
40287;DHT22;25998;46.604;13.610;2024-01-15T09:59:16;4.30;99.90
40287;DHT22;25998;46.604;13.610;2024-01-15T10:02:28;4.10;99.90
40287;DHT22;25998;46.604;13.610;2024-01-15T10:05:40;4.10;99.90
40287;DHT22;25998;46.604;13.610;2024-01-15T10:08:51;3.90;99.90
40287;DHT22;25998;46.604;13.610;2024-01-15T10:12:04;3.90;99.90
40287;DHT22;25998;46.604;13.610;2024-01-15T10:15:15;4.10;99.90
40287;DHT22;25998;46.604;13.610;2024-01-15T10:18:26;4.50;99.90
40287;DHT22;25998;46.604;13.610;2024-01-15T10:21:38;4.90;99.90
40287;DHT22;25998;46.604;13.610;2024-01-15T10:24:49;5.00;99.80
40287;DHT22;25998;46.604;13.610;2024-01-15T10:28:01;5.20;99.40
40287;DHT22;25998;46.604;13.610;2024-01-15T10:31:13;5.30;99.00
40287;DHT22;25998;46.604;13.610;2024-01-15T10:34:25;5.30;98.90
40287;DHT22;25998;46.604;13.610;2024-01-15T10:37:36;5.30;99.10
40287;DHT22;25998;46.604;13.610;2024-01-15T10:40:46;5.30;98.60
40287;DHT22;25998;46.604;13.610;2024-01-15T10:43:57;5.40;98.70
40287;DHT22;25998;46.604;13.610;2024-01-15T10:47:08;5.30;98.20
40287;DHT22;25998;46.604;13.610;2024-01-15T10:50:19;5.50;98.60
40287;DHT22;25998;46.604;13.610;2024-01-15T10:53:31;5.80;98.50
40287;DHT22;25998;46.604;13.610;2024-01-15T10:56:43;5.90;98.20
40287;DHT22;25998;46.604;13.610;2024-01-15T10:59:56;6.00;97.80
40287;DHT22;25998;46.604;13.610;2024-01-15T11:03:09;6.00;98.10
40287;DHT22;25998;46.604;13.610;2024-01-15T11:06:24;6.10;97.20
40287;DHT22;25998;46.604;13.610;2024-01-15T11:09:35;6.00;97.30
40287;DHT22;25998;46.604;13.610;2024-01-15T11:12:47;5.90;97.80
40287;DHT22;25998;46.604;13.610;2024-01-15T11:16:06;6.00;97.70
40287;DHT22;25998;46.604;13.610;2024-01-15T11:19:18;6.10;97.30
40287;DHT22;25998;46.604;13.610;2024-01-15T11:25:40;6.20;97.40
40287;DHT22;25998;46.604;13.610;2024-01-15T11:28:51;6.40;96.90
40287;DHT22;25998;46.604;13.610;2024-01-15T11:32:09;6.70;96.50
40287;DHT22;25998;46.604;13.610;2024-01-15T11:35:20;6.80;96.40
40287;DHT22;25998;46.604;13.610;2024-01-15T11:38:30;6.70;96.60
40287;DHT22;25998;46.604;13.610;2024-01-15T11:41:41;6.30;97.00
40287;DHT22;25998;46.604;13.610;2024-01-15T11:44:52;5.80;98.20
40287;DHT22;25998;46.604;13.610;2024-01-15T11:48:15;5.40;98.30
40287;DHT22;25998;46.604;13.610;2024-01-15T11:51:27;5.10;98.40
40287;DHT22;25998;46.604;13.610;2024-01-15T11:54:38;5.20;98.60
40287;DHT22;25998;46.604;13.610;2024-01-15T11:57:52;5.30;98.30
40287;DHT22;25998;46.604;13.610;2024-01-15T12:01:04;5.50;98.10
40287;DHT22;25998;46.604;13.610;2024-01-15T12:04:15;5.50;98.00
40287;DHT22;25998;46.604;13.610;2024-01-15T12:07:28;5.70;98.40
40287;DHT22;25998;46.604;13.610;2024-01-15T12:10:42;5.70;97.70
40287;DHT22;25998;46.604;13.610;2024-01-15T12:13:54;5.60;97.50
40287;DHT22;25998;46.604;13.610;2024-01-15T12:17:07;5.80;97.10
40287;DHT22;25998;46.604;13.610;2024-01-15T12:20:18;5.70;97.50
40287;DHT22;25998;46.604;13.610;2024-01-15T12:23:29;5.40;97.80
40287;DHT22;25998;46.604;13.610;2024-01-15T12:26:40;5.30;97.60
40287;DHT22;25998;46.604;13.610;2024-01-15T12:29:53;5.50;97.50
40287;DHT22;25998;46.604;13.610;2024-01-15T12:33:05;5.60;97.50
40287;DHT22;25998;46.604;13.610;2024-01-15T12:36:20;5.40;97.10
40287;DHT22;25998;46.604;13.610;2024-01-15T12:39:34;5.40;97.00
40287;DHT22;25998;46.604;13.610;2024-01-15T12:42:45;5.60;96.80
40287;DHT22;25998;46.604;13.610;2024-01-15T12:45:56;5.60;97.00
40287;DHT22;25998;46.604;13.610;2024-01-15T12:49:08;5.50;96.60
40287;DHT22;25998;46.604;13.610;2024-01-15T12:52:19;5.50;96.40
40287;DHT22;25998;46.604;13.610;2024-01-15T12:55:32;5.60;96.60
40287;DHT22;25998;46.604;13.610;2024-01-15T12:58:42;5.60;96.40
40287;DHT22;25998;46.604;13.610;2024-01-15T13:01:53;5.60;96.00
40287;DHT22;25998;46.604;13.610;2024-01-15T13:05:07;5.60;96.50
40287;DHT22;25998;46.604;13.610;2024-01-15T13:08:19;5.50;96.50
40287;DHT22;25998;46.604;13.610;2024-01-15T13:11:30;5.60;96.20
40287;DHT22;25998;46.604;13.610;2024-01-15T13:14:41;5.70;96.40
40287;DHT22;25998;46.604;13.610;2024-01-15T13:17:52;5.70;96.40
40287;DHT22;25998;46.604;13.610;2024-01-15T13:21:03;5.60;96.60
40287;DHT22;25998;46.604;13.610;2024-01-15T13:24:13;5.60;96.60
40287;DHT22;25998;46.604;13.610;2024-01-15T13:27:24;5.60;96.60
40287;DHT22;25998;46.604;13.610;2024-01-15T13:30:35;5.70;96.70
40287;DHT22;25998;46.604;13.610;2024-01-15T13:33:47;5.70;96.80
40287;DHT22;25998;46.604;13.610;2024-01-15T13:36:58;5.60;96.70
40287;DHT22;25998;46.604;13.610;2024-01-15T13:40:09;5.70;96.60
40287;DHT22;25998;46.604;13.610;2024-01-15T13:43:21;5.60;96.50
40287;DHT22;25998;46.604;13.610;2024-01-15T13:46:31;5.60;96.80
40287;DHT22;25998;46.604;13.610;2024-01-15T13:49:44;5.50;96.80
40287;DHT22;25998;46.604;13.610;2024-01-15T13:52:55;5.60;97.10
40287;DHT22;25998;46.604;13.610;2024-01-15T13:56:06;5.50;97.00
40287;DHT22;25998;46.604;13.610;2024-01-15T13:59:18;5.40;97.20
40287;DHT22;25998;46.604;13.610;2024-01-15T14:02:29;5.40;97.20
40287;DHT22;25998;46.604;13.610;2024-01-15T14:05:40;5.30;97.40
40287;DHT22;25998;46.604;13.610;2024-01-15T14:08:51;5.60;97.30
40287;DHT22;25998;46.604;13.610;2024-01-15T14:12:02;5.60;97.00
40287;DHT22;25998;46.604;13.610;2024-01-15T14:15:13;5.40;96.90
40287;DHT22;25998;46.604;13.610;2024-01-15T14:18:24;5.20;97.30
40287;DHT22;25998;46.604;13.610;2024-01-15T14:21:36;5.30;97.60
40287;DHT22;25998;46.604;13.610;2024-01-15T14:24:46;5.60;97.10
40287;DHT22;25998;46.604;13.610;2024-01-15T14:27:57;5.60;97.00
40287;DHT22;25998;46.604;13.610;2024-01-15T14:31:09;5.30;97.00
40287;DHT22;25998;46.604;13.610;2024-01-15T14:34:20;5.20;97.40
40287;DHT22;25998;46.604;13.610;2024-01-15T14:37:33;5.10;97.90
40287;DHT22;25998;46.604;13.610;2024-01-15T14:40:44;5.10;98.20
40287;DHT22;25998;46.604;13.610;2024-01-15T14:43:55;5.00;98.30
40287;DHT22;25998;46.604;13.610;2024-01-15T14:47:08;4.80;98.60
40287;DHT22;25998;46.604;13.610;2024-01-15T14:50:18;4.50;99.30
40287;DHT22;25998;46.604;13.610;2024-01-15T14:53:30;4.30;99.30
40287;DHT22;25998;46.604;13.610;2024-01-15T14:56:41;4.20;99.80
40287;DHT22;25998;46.604;13.610;2024-01-15T14:59:53;4.00;99.90
40287;DHT22;25998;46.604;13.610;2024-01-15T15:03:04;4.00;99.90
40287;DHT22;25998;46.604;13.610;2024-01-15T15:06:15;4.00;99.90
40287;DHT22;25998;46.604;13.610;2024-01-15T15:09:26;4.20;99.80
40287;DHT22;25998;46.604;13.610;2024-01-15T15:12:38;4.20;99.50
40287;DHT22;25998;46.604;13.610;2024-01-15T15:15:49;4.00;99.90
40287;DHT22;25998;46.604;13.610;2024-01-15T15:18:59;3.90;99.90
40287;DHT22;25998;46.604;13.610;2024-01-15T15:22:10;3.80;99.90
40287;DHT22;25998;46.604;13.610;2024-01-15T15:25:22;3.50;99.90
40287;DHT22;25998;46.604;13.610;2024-01-15T15:28:33;3.30;99.90
40287;DHT22;25998;46.604;13.610;2024-01-15T15:31:50;3.10;99.90
40287;DHT22;25998;46.604;13.610;2024-01-15T15:35:00;3.00;99.90
40287;DHT22;25998;46.604;13.610;2024-01-15T15:38:11;3.10;99.90
40287;DHT22;25998;46.604;13.610;2024-01-15T15:41:22;3.20;99.90
40287;DHT22;25998;46.604;13.610;2024-01-15T15:44:33;3.10;99.90
40287;DHT22;25998;46.604;13.610;2024-01-15T15:47:44;3.10;99.90
40287;DHT22;25998;46.604;13.610;2024-01-15T15:50:55;3.30;99.90
40287;DHT22;25998;46.604;13.610;2024-01-15T15:54:06;3.30;99.90
40287;DHT22;25998;46.604;13.610;2024-01-15T15:57:17;3.00;99.90
40287;DHT22;25998;46.604;13.610;2024-01-15T16:00:27;3.00;99.90
40287;DHT22;25998;46.604;13.610;2024-01-15T16:03:38;2.90;99.90
40287;DHT22;25998;46.604;13.610;2024-01-15T16:06:49;2.80;99.90
40287;DHT22;25998;46.604;13.610;2024-01-15T16:10:00;2.70;99.90
40287;DHT22;25998;46.604;13.610;2024-01-15T16:13:11;2.80;99.90
40287;DHT22;25998;46.604;13.610;2024-01-15T16:16:24;3.00;99.90
40287;DHT22;25998;46.604;13.610;2024-01-15T16:19:35;2.80;99.90
40287;DHT22;25998;46.604;13.610;2024-01-15T16:22:46;2.70;99.90
40287;DHT22;25998;46.604;13.610;2024-01-15T16:25:57;2.60;99.90
40287;DHT22;25998;46.604;13.610;2024-01-15T16:29:08;2.60;99.90
40287;DHT22;25998;46.604;13.610;2024-01-15T16:32:20;2.60;99.90
40287;DHT22;25998;46.604;13.610;2024-01-15T16:35:30;2.60;99.90
40287;DHT22;25998;46.604;13.610;2024-01-15T16:38:41;2.70;99.90
40287;DHT22;25998;46.604;13.610;2024-01-15T16:41:52;2.70;99.90
40287;DHT22;25998;46.604;13.610;2024-01-15T16:45:04;2.70;99.90
40287;DHT22;25998;46.604;13.610;2024-01-15T16:48:15;2.80;99.90
40287;DHT22;25998;46.604;13.610;2024-01-15T16:51:26;2.70;99.90
40287;DHT22;25998;46.604;13.610;2024-01-15T16:54:37;2.90;99.90
40287;DHT22;25998;46.604;13.610;2024-01-15T16:57:48;3.10;99.90
40287;DHT22;25998;46.604;13.610;2024-01-15T17:00:59;3.00;99.90
40287;DHT22;25998;46.604;13.610;2024-01-15T17:04:10;2.90;99.90
40287;DHT22;25998;46.604;13.610;2024-01-15T17:07:21;3.00;99.90
40287;DHT22;25998;46.604;13.610;2024-01-15T17:10:32;3.10;99.90
40287;DHT22;25998;46.604;13.610;2024-01-15T17:13:48;3.10;99.90
40287;DHT22;25998;46.604;13.610;2024-01-15T17:16:59;3.10;99.90
40287;DHT22;25998;46.604;13.610;2024-01-15T17:20:10;2.90;99.90
40287;DHT22;25998;46.604;13.610;2024-01-15T17:23:21;2.80;99.90
40287;DHT22;25998;46.604;13.610;2024-01-15T17:26:32;2.70;99.90
40287;DHT22;25998;46.604;13.610;2024-01-15T17:29:43;2.70;99.90
40287;DHT22;25998;46.604;13.610;2024-01-15T17:32:54;2.70;99.90
40287;DHT22;25998;46.604;13.610;2024-01-15T17:36:05;2.70;99.90
40287;DHT22;25998;46.604;13.610;2024-01-15T17:39:16;2.80;99.90
40287;DHT22;25998;46.604;13.610;2024-01-15T17:42:28;2.80;99.90
40287;DHT22;25998;46.604;13.610;2024-01-15T17:45:39;2.70;99.90
40287;DHT22;25998;46.604;13.610;2024-01-15T17:48:50;2.80;99.90
40287;DHT22;25998;46.604;13.610;2024-01-15T17:52:01;3.00;99.90
40287;DHT22;25998;46.604;13.610;2024-01-15T17:55:12;3.10;99.90
40287;DHT22;25998;46.604;13.610;2024-01-15T17:58:23;3.10;99.90
40287;DHT22;25998;46.604;13.610;2024-01-15T18:01:33;2.90;99.90
40287;DHT22;25998;46.604;13.610;2024-01-15T18:04:46;2.80;99.90
40287;DHT22;25998;46.604;13.610;2024-01-15T18:07:57;2.90;99.90
40287;DHT22;25998;46.604;13.610;2024-01-15T18:11:09;3.00;99.90
40287;DHT22;25998;46.604;13.610;2024-01-15T18:14:25;2.90;99.90
40287;DHT22;25998;46.604;13.610;2024-01-15T18:17:36;2.80;99.90
40287;DHT22;25998;46.604;13.610;2024-01-15T18:20:46;2.70;99.90
40287;DHT22;25998;46.604;13.610;2024-01-15T18:23:57;2.70;99.90
40287;DHT22;25998;46.604;13.610;2024-01-15T18:27:08;2.80;99.90
40287;DHT22;25998;46.604;13.610;2024-01-15T18:30:19;2.90;99.90
40287;DHT22;25998;46.604;13.610;2024-01-15T18:33:30;2.90;99.90
40287;DHT22;25998;46.604;13.610;2024-01-15T18:36:41;2.90;99.90
40287;DHT22;25998;46.604;13.610;2024-01-15T18:39:55;2.80;99.90
40287;DHT22;25998;46.604;13.610;2024-01-15T18:43:06;2.70;99.90
40287;DHT22;25998;46.604;13.610;2024-01-15T18:46:20;2.90;99.90
40287;DHT22;25998;46.604;13.610;2024-01-15T18:49:31;2.80;99.90
40287;DHT22;25998;46.604;13.610;2024-01-15T18:52:42;2.90;99.90
40287;DHT22;25998;46.604;13.610;2024-01-15T18:55:53;3.00;99.90
40287;DHT22;25998;46.604;13.610;2024-01-15T18:59:06;3.00;99.90
40287;DHT22;25998;46.604;13.610;2024-01-15T19:02:18;2.80;99.90
40287;DHT22;25998;46.604;13.610;2024-01-15T19:05:29;2.70;99.90
40287;DHT22;25998;46.604;13.610;2024-01-15T19:08:41;2.70;99.90
40287;DHT22;25998;46.604;13.610;2024-01-15T19:11:52;2.80;99.90
40287;DHT22;25998;46.604;13.610;2024-01-15T19:15:03;2.70;99.90
40287;DHT22;25998;46.604;13.610;2024-01-15T19:18:14;2.90;99.90
40287;DHT22;25998;46.604;13.610;2024-01-15T19:21:25;2.70;99.90
40287;DHT22;25998;46.604;13.610;2024-01-15T19:24:36;2.80;99.90
40287;DHT22;25998;46.604;13.610;2024-01-15T19:27:49;2.70;99.90
40287;DHT22;25998;46.604;13.610;2024-01-15T19:31:00;2.80;99.90
40287;DHT22;25998;46.604;13.610;2024-01-15T19:34:12;2.50;99.90
40287;DHT22;25998;46.604;13.610;2024-01-15T19:37:22;2.40;99.90
40287;DHT22;25998;46.604;13.610;2024-01-15T19:40:34;2.40;99.90
40287;DHT22;25998;46.604;13.610;2024-01-15T19:43:45;2.60;99.90
40287;DHT22;25998;46.604;13.610;2024-01-15T19:46:57;2.60;99.90
40287;DHT22;25998;46.604;13.610;2024-01-15T19:50:09;2.60;99.90
40287;DHT22;25998;46.604;13.610;2024-01-15T19:53:20;2.50;99.90
40287;DHT22;25998;46.604;13.610;2024-01-15T19:56:30;2.20;99.90
40287;DHT22;25998;46.604;13.610;2024-01-15T19:59:41;2.20;99.90
40287;DHT22;25998;46.604;13.610;2024-01-15T20:02:52;2.00;99.90
40287;DHT22;25998;46.604;13.610;2024-01-15T20:06:03;1.80;99.90
40287;DHT22;25998;46.604;13.610;2024-01-15T20:09:19;1.60;99.90
40287;DHT22;25998;46.604;13.610;2024-01-15T20:12:29;1.80;99.90
40287;DHT22;25998;46.604;13.610;2024-01-15T20:15:40;1.70;99.90
40287;DHT22;25998;46.604;13.610;2024-01-15T20:18:51;1.70;99.90
40287;DHT22;25998;46.604;13.610;2024-01-15T20:22:02;1.40;99.90
40287;DHT22;25998;46.604;13.610;2024-01-15T20:25:13;1.30;99.90
40287;DHT22;25998;46.604;13.610;2024-01-15T20:28:24;1.20;99.90
40287;DHT22;25998;46.604;13.610;2024-01-15T20:31:35;1.10;99.90
40287;DHT22;25998;46.604;13.610;2024-01-15T20:34:46;1.00;99.90